X  Stänga Metar väderdata för luftfart     LGRX Patras Araxos Agamemnon Airport
Temperatur
25°C Temperatur
20°C Daggpunkt
74% Fuktighet



Vind
3 M/S
6 MPH
10 KM/T
5 KTS



240°
VSV
Nuvarande omständigheter

Mest spridda moln Mest spridda moln
Tryck 1010.84 (hPa) - 29.85 (inHg)
Synlighet 6 (mil) - 9.7 (km)
Flygplats
Flygplatskod LGRX

Plats: Patras Araxos Agamemnon Airport
Distans: 108 (km)

Metar:
LGRX 140420Z 24005KT 9999 SCT080 25/20 Q1011

Tid: 14-06-2024 07:20 EEST